Time;durP1;ratioP1;P1;durP2;ratioP2;P2;SDS_P1;SDS_P2;PMS_P1;PMS_P2;Temp;Humidity;BMP_temperature;BMP_pressure;BME280_temperature;BME280_humidity;BME280_pressure;Samples;Min_cycle;Max_cycle;Signal;HPM_P1;HPM_P2
2023/07/30 00:00:11;;;;;;;9.57;4.07;;;;;;;14.75;100.00;100804.91;5005557;28;20124;-79
2023/07/30 00:02:38;;;;;;;12.45;4.03;;;;;;;14.70;100.00;100807.78;5006719;28;20041;-80
2023/07/30 00:05:06;;;;;;;8.13;3.83;;;;;;;14.67;100.00;100805.28;4977871;28;20049;-80
2023/07/30 00:07:33;;;;;;;7.35;4.03;;;;;;;14.65;100.00;100800.94;5006952;28;20046;-79
2023/07/30 00:10:00;;;;;;;7.28;4.10;;;;;;;14.60;100.00;100804.66;5005078;28;20042;-79
2023/07/30 00:12:27;;;;;;;7.70;3.95;;;;;;;14.57;100.00;100807.50;4988665;28;20050;-80
2023/07/30 00:14:54;;;;;;;10.82;3.53;;;;;;;14.57;100.00;100806.63;5001303;28;20042;-80
2023/07/30 00:17:22;;;;;;;7.43;3.75;;;;;;;14.57;100.00;100806.63;4987406;28;20042;-77
2023/07/30 00:19:49;;;;;;;10.45;3.38;;;;;;;14.55;100.00;100804.03;5005751;28;20458;-78
2023/07/30 00:22:19;;;;;;;9.05;3.70;;;;;;;14.53;100.00;100807.72;5005585;28;20072;-78
2023/07/30 00:24:50;;;;;;;7.13;3.15;;;;;;;14.49;100.00;100803.47;5008763;28;20474;-79
2023/07/30 00:27:17;;;;;;;10.40;3.22;;;;;;;14.49;100.00;100796.41;5005976;28;20580;-79
2023/07/30 00:29:48;;;;;;;9.48;3.22;;;;;;;14.49;100.00;100795.50;5010872;28;20061;-79
2023/07/30 00:32:16;;;;;;;8.68;3.13;;;;;;;14.50;100.00;100794.59;4992378;28;20077;-80
2023/07/30 00:34:44;;;;;;;9.57;3.13;;;;;;;14.52;100.00;100796.22;4990146;28;20522;-80
2023/07/30 00:37:11;;;;;;;8.90;2.95;;;;;;;14.52;100.00;100801.53;4989340;28;20513;-79
2023/07/30 00:39:38;;;;;;;6.13;3.08;;;;;;;14.50;100.00;100806.03;5005685;28;20119;-79
2023/07/30 00:42:06;;;;;;;11.30;3.30;;;;;;;14.50;100.00;100802.53;4993083;28;20053;-79
2023/07/30 00:44:33;;;;;;;7.55;3.33;;;;;;;14.48;100.00;100796.44;4993519;28;20050;-80
2023/07/30 00:47:00;;;;;;;9.50;3.45;;;;;;;14.49;100.00;100801.69;5002043;28;20038;-79
2023/07/30 00:49:27;;;;;;;6.85;3.30;;;;;;;14.50;100.00;100803.38;5006999;28;20065;-78
2023/07/30 00:51:56;;;;;;;7.40;3.38;;;;;;;14.51;100.00;100807.75;5007755;28;20038;-79
2023/07/30 00:54:25;;;;;;;6.28;3.03;;;;;;;14.54;100.00;100814.75;5010231;28;20081;-79
2023/07/30 00:56:53;;;;;;;6.53;3.30;;;;;;;14.53;100.00;100819.16;4984861;28;20121;-79
2023/07/30 00:59:21;;;;;;;6.78;2.92;;;;;;;14.57;100.00;100812.78;4992075;28;20085;-78
2023/07/30 01:01:52;;;;;;;9.45;2.88;;;;;;;14.56;100.00;100816.38;5006281;28;20057;-80
2023/07/30 01:04:19;;;;;;;8.23;3.40;;;;;;;14.58;100.00;100819.81;4991237;28;20125;-79
2023/07/30 01:06:46;;;;;;;6.22;2.55;;;;;;;14.56;100.00;100823.47;4989345;28;20577;-80
2023/07/30 01:09:14;;;;;;;8.93;3.15;;;;;;;14.57;100.00;100822.53;4997981;28;20077;-79
2023/07/30 01:11:43;;;;;;;10.95;2.80;;;;;;;14.58;100.00;100822.47;4989838;28;20041;-79
2023/07/30 01:14:11;;;;;;;8.43;2.70;;;;;;;14.56;100.00;100828.75;4986359;28;20046;-79
2023/07/30 01:16:38;;;;;;;7.65;2.75;;;;;;;14.55;100.00;100825.28;5009128;28;20143;-79
2023/07/30 01:19:06;;;;;;;7.22;2.60;;;;;;;14.55;100.00;100827.91;4991370;28;20104;-79
2023/07/30 01:21:36;;;;;;;5.32;2.88;;;;;;;14.54;100.00;100830.66;5021573;28;20058;-79
2023/07/30 01:24:04;;;;;;;9.90;2.63;;;;;;;14.50;100.00;100821.09;5009825;28;20042;-79
2023/07/30 01:26:54;;;;;;;9.07;3.15;;;;;;;14.48;100.00;100837.09;5007703;28;20042;-79
2023/07/30 01:29:28;;;;;;;7.05;2.55;;;;;;;14.43;100.00;100831.13;5008259;28;20121;-78
2023/07/30 01:32:04;;;;;;;7.25;2.42;;;;;;;14.40;100.00;100832.16;5004593;28;20040;-79
2023/07/30 01:34:36;;;;;;;10.65;2.95;;;;;;;14.37;100.00;100829.63;5005576;28;20034;-80
2023/07/30 01:37:12;;;;;;;10.07;3.05;;;;;;;14.35;100.00;100841.25;4974227;28;20046;-80
2023/07/30 01:39:42;;;;;;;10.52;2.92;;;;;;;14.32;100.00;100836.09;4987484;28;20057;-78
2023/07/30 01:42:12;;;;;;;10.25;2.60;;;;;;;14.31;100.00;100842.31;4990859;28;20042;-79
2023/07/30 01:44:40;;;;;;;7.85;3.42;;;;;;;14.26;100.00;100842.53;5009732;28;20077;-78
2023/07/30 01:47:07;;;;;;;9.07;3.35;;;;;;;14.24;100.00;100844.41;4975527;28;20046;-78
2023/07/30 01:49:35;;;;;;;10.35;3.38;;;;;;;14.21;100.00;100848.03;5009535;28;20084;-78
2023/07/30 01:52:02;;;;;;;8.82;3.20;;;;;;;14.21;100.00;100858.63;4987098;28;20066;-78
2023/07/30 01:54:29;;;;;;;8.88;3.63;;;;;;;14.21;100.00;100849.84;4991308;28;20057;-79
2023/07/30 01:56:56;;;;;;;9.38;3.42;;;;;;;14.23;100.00;100850.63;5009718;28;20502;-79
2023/07/30 01:59:23;;;;;;;7.95;3.17;;;;;;;14.23;100.00;100850.63;4990023;28;20060;-79
2023/07/30 02:01:50;;;;;;;9.30;3.03;;;;;;;14.25;100.00;100851.41;4990041;28;20073;-79
2023/07/30 02:04:17;;;;;;;8.38;3.00;;;;;;;14.25;100.00;100857.59;5006655;28;20104;-78
2023/07/30 02:06:45;;;;;;;9.48;3.13;;;;;;;14.26;100.00;100845.19;5009002;28;20099;-83
2023/07/30 02:09:12;;;;;;;8.05;2.97;;;;;;;14.22;100.00;100849.75;4991147;28;20042;-82
2023/07/30 02:11:40;;;;;;;13.25;3.42;;;;;;;14.23;100.00;100848.84;4988980;28;20631;-79
2023/07/30 02:14:07;;;;;;;10.40;3.13;;;;;;;14.24;100.00;100852.38;5004098;28;20041;-78
2023/07/30 02:16:34;;;;;;;9.88;2.92;;;;;;;14.24;100.00;100844.41;5008237;28;20045;-77
2023/07/30 02:19:01;;;;;;;9.23;3.20;;;;;;;14.23;100.00;100845.34;4973134;28;20121;-79
2023/07/30 02:21:30;;;;;;;10.48;3.13;;;;;;;14.21;100.00;100841.88;5008569;28;20434;-81
2023/07/30 02:23:57;;;;;;;10.25;2.97;;;;;;;14.20;100.00;100835.72;5002604;28;20047;-77
2023/07/30 02:26:24;;;;;;;13.07;3.10;;;;;;;14.20;100.00;100846.31;4984933;28;20054;-76
2023/07/30 02:28:51;;;;;;;11.40;3.38;;;;;;;14.18;100.00;100844.66;5006188;28;20056;-75
2023/07/30 02:31:18;;;;;;;9.05;3.75;;;;;;;14.17;100.00;100841.16;5006842;28;20054;-75
2023/07/30 02:33:46;;;;;;;7.70;3.15;;;;;;;14.16;100.00;100833.25;4988509;28;20038;-76
2023/07/30 02:36:13;;;;;;;6.13;2.90;;;;;;;14.14;100.00;100828.88;5009933;28;20046;-75
2023/07/30 02:38:40;;;;;;;9.68;3.00;;;;;;;14.13;100.00;100834.28;5007342;28;20045;-76
2023/07/30 02:41:07;;;;;;;8.13;3.30;;;;;;;14.10;100.00;100829.97;5005385;28;20414;-76
2023/07/30 02:43:34;;;;;;;9.43;2.90;;;;;;;14.09;100.00;100828.25;5013130;28;20041;-76
2023/07/30 02:46:01;;;;;;;8.57;2.95;;;;;;;14.06;100.00;100828.38;5002157;28;20140;-76
2023/07/30 02:48:28;;;;;;;10.30;3.42;;;;;;;14.01;100.00;100835.69;4987427;28;20077;-77
2023/07/30 02:50:56;;;;;;;8.15;3.13;;;;;;;13.98;100.00;100846.44;5005455;28;20528;-77
2023/07/30 02:53:23;;;;;;;8.98;3.60;;;;;;;13.92;100.00;100838.75;4973320;28;20502;-77
2023/07/30 02:55:50;;;;;;;13.20;3.67;;;;;;;13.89;100.00;100839.72;4988215;28;20125;-77
2023/07/30 02:58:17;;;;;;;9.63;3.33;;;;;;;13.86;100.00;100836.38;4964834;28;20694;-76
2023/07/30 03:00:44;;;;;;;8.70;3.38;;;;;;;13.86;100.00;100841.66;5008395;28;20041;-76
2023/07/30 03:03:11;;;;;;;13.05;3.38;;;;;;;13.88;100.00;100837.16;4986213;28;20285;-77
2023/07/30 03:05:43;;;;;;;8.85;3.17;;;;;;;13.93;100.00;100840.50;4986468;28;20045;-77
2023/07/30 03:08:10;;;;;;;13.88;3.70;;;;;;;13.96;100.00;100835.03;4993552;28;20068;-77
2023/07/30 03:10:37;;;;;;;8.85;4.00;;;;;;;13.98;100.00;100835.81;4986161;28;20046;-77
2023/07/30 03:13:04;;;;;;;12.88;3.58;;;;;;;14.03;100.00;100835.63;5009495;28;20045;-78
2023/07/30 03:15:33;;;;;;;9.10;3.45;;;;;;;14.08;100.00;100838.94;4990662;28;20076;-78
2023/07/30 03:18:00;;;;;;;10.00;3.50;;;;;;;14.12;100.00;100840.50;5007446;28;20548;-79
2023/07/30 03:20:28;;;;;;;10.43;3.63;;;;;;;14.16;100.00;100842.09;4989307;28;20049;-79
2023/07/30 03:22:55;;;;;;;10.23;4.07;;;;;;;14.22;100.00;100849.75;4986854;28;20053;-79
2023/07/30 03:25:22;;;;;;;12.38;3.95;;;;;;;14.26;100.00;100847.81;4976294;28;20050;-82
2023/07/30 03:27:50;;;;;;;12.27;4.22;;;;;;;14.28;100.00;100846.84;4997268;28;20054;-82
2023/07/30 03:30:18;;;;;;;9.70;4.05;;;;;;;14.35;100.00;100852.72;4988487;28;20046;-83
2023/07/30 03:32:45;;;;;;;17.45;4.93;;;;;;;14.41;100.00;100854.22;4987412;28;20038;-82
2023/07/30 03:35:13;;;;;;;12.95;4.80;;;;;;;14.46;100.00;100852.22;4988496;28;20500;-83
2023/07/30 03:37:40;;;;;;;14.30;5.63;;;;;;;14.53;100.00;100856.31;5002813;28;20050;-82
2023/07/30 03:40:08;;;;;;;14.70;5.82;;;;;;;14.55;100.00;100856.25;4976534;28;20067;-83
2023/07/30 03:42:35;;;;;;;14.88;6.43;;;;;;;14.57;100.00;100854.38;4997761;28;20046;-81
2023/07/30 03:45:04;;;;;;;15.27;6.07;;;;;;;14.62;100.00;100855.03;5006869;28;20057;-83
2023/07/30 03:47:31;;;;;;;12.98;6.18;;;;;;;14.66;100.00;100859.22;5006098;28;20533;-78
2023/07/30 03:49:58;;;;;;;18.45;6.57;;;;;;;14.70;100.00;100865.31;5007099;28;20081;-79
2023/07/30 03:52:26;;;;;;;16.58;6.75;;;;;;;14.73;100.00;100865.16;5007678;28;20042;-77
2023/07/30 03:54:53;;;;;;;19.27;6.90;;;;;;;14.74;100.00;100858.91;4988806;28;20468;-76
2023/07/30 03:57:20;;;;;;;21.27;7.25;;;;;;;14.77;100.00;100858.78;4989160;28;20092;-76
2023/07/30 03:59:47;;;;;;;17.58;6.97;;;;;;;14.80;100.00;100865.72;4988563;28;20065;-75
2023/07/30 04:02:15;;;;;;;16.08;7.18;;;;;;;14.82;100.00;100866.53;4992268;28;20608;-75
2023/07/30 04:04:48;;;;;;;14.82;7.07;;;;;;;14.87;100.00;100869.78;4994052;28;20129;-75
2023/07/30 04:07:16;;;;;;;17.88;7.40;;;;;;;14.89;100.00;100871.47;4993679;28;20096;-75
2023/07/30 04:09:43;;;;;;;19.02;6.60;;;;;;;14.89;100.00;100868.81;4988642;28;20046;-76
2023/07/30 04:12:10;;;;;;;17.00;6.50;;;;;;;14.94;100.00;100865.06;5017899;28;20050;-75
2023/07/30 04:14:37;;;;;;;14.77;6.72;;;;;;;14.97;100.00;100873.72;5011659;28;20041;-75
2023/07/30 04:17:04;;;;;;;22.30;7.00;;;;;;;14.99;100.00;100874.53;5009264;28;20073;-75
2023/07/30 04:19:31;;;;;;;17.77;7.45;;;;;;;15.00;100.00;100865.63;4993584;28;20076;-77
2023/07/30 04:21:58;;;;;;;21.45;7.45;;;;;;;15.02;100.00;100871.72;4993312;28;20088;-76
2023/07/30 04:24:26;;;;;;;18.35;6.82;;;;;;;15.04;100.00;100869.00;4990104;28;20038;-75
2023/07/30 04:26:53;;;;;;;20.58;6.80;;;;;;;15.08;100.00;100873.22;4998709;28;20102;-77
2023/07/30 04:29:20;;;;;;;16.80;6.55;;;;;;;15.11;100.00;100874.88;4991428;28;20053;-77
2023/07/30 04:31:47;;;;;;;17.73;6.93;;;;;;;15.14;100.00;100882.69;4978276;28;20550;-77
2023/07/30 04:34:15;;;;;;;19.35;7.35;;;;;;;15.15;100.00;100879.94;4984270;28;20046;-78
2023/07/30 04:36:42;;;;;;;15.23;7.30;;;;;;;15.19;100.00;100878.88;4992086;28;20038;-80
2023/07/30 04:39:09;;;;;;;17.98;6.45;;;;;;;15.21;100.00;100884.09;4975600;28;20100;-79
2023/07/30 04:41:36;;;;;;;17.73;7.03;;;;;;;15.25;100.00;100877.72;4994587;28;20126;-75
2023/07/30 04:44:04;;;;;;;20.27;7.18;;;;;;;15.30;100.00;100880.13;4990963;28;20116;-79
2023/07/30 04:46:34;;;;;;;16.25;6.88;;;;;;;15.34;100.00;100887.00;4970645;28;20137;-77
2023/07/30 04:49:04;;;;;;;16.95;7.05;;;;;;;15.37;100.00;100885.06;5003073;28;20060;-78
2023/07/30 04:51:31;;;;;;;17.45;6.53;;;;;;;15.41;100.00;100887.56;5008902;28;20046;-79
2023/07/30 04:53:58;;;;;;;15.40;6.03;;;;;;;15.42;100.00;100889.28;5006263;28;20057;-79
2023/07/30 04:56:26;;;;;;;16.27;7.10;;;;;;;15.44;100.00;100880.28;4998291;28;20058;-79
2023/07/30 04:58:54;;;;;;;21.50;6.75;;;;;;;15.50;100.00;100882.66;4991064;28;20053;-79
2023/07/30 05:01:21;;;;;;;13.90;6.13;;;;;;;15.51;100.00;100884.38;4990782;28;20052;-79
2023/07/30 05:03:50;;;;;;;17.65;6.60;;;;;;;15.56;100.00;100893.91;4995642;28;20084;-79
2023/07/30 05:06:17;;;;;;;18.13;6.07;;;;;;;15.55;100.00;100887.75;4997785;28;20038;-78
2023/07/30 05:08:45;;;;;;;17.13;6.10;;;;;;;15.58;99.98;100878.75;4987633;28;20038;-78
2023/07/30 05:11:12;;;;;;;17.92;6.22;;;;;;;15.58;100.00;100884.91;4988842;28;20046;-78
2023/07/30 05:13:39;;;;;;;17.42;5.82;;;;;;;15.61;99.84;100883.91;5004801;28;20038;-77
2023/07/30 05:16:06;;;;;;;21.77;6.15;;;;;;;15.63;100.00;100882.91;4990015;28;20442;-77
2023/07/30 05:18:33;;;;;;;17.90;5.97;;;;;;;15.71;100.00;100885.16;5006569;28;20076;-77
2023/07/30 05:21:00;;;;;;;16.15;5.80;;;;;;;15.87;99.97;100884.41;4985552;28;20119;-77
2023/07/30 05:23:28;;;;;;;16.45;5.88;;;;;;;16.02;98.87;100888.94;5002370;28;20061;-78
2023/07/30 05:25:55;;;;;;;14.40;5.70;;;;;;;16.15;99.01;100883.81;5001431;28;20046;-78
2023/07/30 05:28:22;;;;;;;15.65;5.95;;;;;;;16.33;98.03;100884.59;4988990;28;20041;-77
2023/07/30 05:30:49;;;;;;;19.15;6.18;;;;;;;16.43;96.72;100885.81;5006466;28;20111;-78
2023/07/30 05:33:16;;;;;;;14.40;5.57;;;;;;;16.40;94.99;100888.69;5005509;28;20052;-78
2023/07/30 05:35:44;;;;;;;18.63;6.47;;;;;;;16.35;95.63;100901.34;5010232;28;20080;-78
2023/07/30 05:38:11;;;;;;;18.33;6.10;;;;;;;16.25;95.52;100900.13;5003825;28;20121;-78
2023/07/30 05:40:38;;;;;;;18.85;6.03;;;;;;;16.25;96.40;100905.44;5006022;28;20474;-75
2023/07/30 05:43:06;;;;;;;17.60;6.38;;;;;;;16.24;97.30;100909.03;4987285;28;20053;-76
2023/07/30 05:45:35;;;;;;;15.88;6.63;;;;;;;16.23;96.90;100902.00;5007760;28;20049;-76
2023/07/30 05:48:02;;;;;;;21.77;6.68;;;;;;;16.22;96.64;100911.78;5007279;28;20115;-77
2023/07/30 05:50:29;;;;;;;15.27;6.20;;;;;;;16.18;96.95;100907.56;4995803;28;20052;-77
2023/07/30 05:52:56;;;;;;;17.67;5.95;;;;;;;16.18;96.57;100906.72;5006195;28;20046;-77
2023/07/30 05:55:23;;;;;;;15.02;6.32;;;;;;;16.20;97.56;100904.84;5004266;28;20041;-79
2023/07/30 05:57:53;;;;;;;14.68;6.03;;;;;;;16.29;97.93;100907.84;5000030;28;20121;-75
2023/07/30 06:00:20;;;;;;;19.00;6.97;;;;;;;16.37;97.29;100906.63;5002199;28;20096;-78
2023/07/30 06:02:48;;;;;;;21.45;7.68;;;;;;;16.41;97.06;100906.38;5005784;28;20052;-78
2023/07/30 06:05:15;;;;;;;16.70;6.20;;;;;;;16.45;96.60;100907.91;4977568;28;20050;-81
2023/07/30 06:07:42;;;;;;;22.92;6.72;;;;;;;16.51;95.94;100906.72;4972605;28;20080;-80
2023/07/30 06:10:09;;;;;;;21.25;6.50;;;;;;;16.52;95.68;100903.09;5007952;28;20049;-79
2023/07/30 06:12:36;;;;;;;17.65;6.30;;;;;;;16.50;95.87;100902.31;4990709;28;20096;-78
2023/07/30 06:15:06;;;;;;;15.18;6.15;;;;;;;16.53;95.03;100903.97;4989178;28;20159;-80
2023/07/30 06:17:33;;;;;;;20.17;6.53;;;;;;;16.55;95.27;100902.94;4990489;28;20046;-80
2023/07/30 06:20:06;;;;;;;18.63;7.07;;;;;;;16.60;94.85;100908.03;5007147;28;20034;-79
2023/07/30 06:22:54;;;;;;;19.10;6.68;;;;;;;16.63;94.95;100907.00;5006052;28;20609;-79
2023/07/30 06:25:24;;;;;;;18.00;6.80;;;;;;;16.67;95.43;100906.72;5006951;28;20030;-79
2023/07/30 06:27:54;;;;;;;21.27;6.72;;;;;;;16.76;95.73;100908.03;4988995;28;20140;-78
2023/07/30 06:30:21;;;;;;;18.88;6.35;;;;;;;16.84;94.23;100908.47;5003221;28;20042;-78
2023/07/30 06:32:48;;;;;;;16.45;6.63;;;;;;;16.92;94.94;100911.56;5006849;28;20046;-78
2023/07/30 06:35:16;;;;;;;17.38;6.60;;;;;;;17.02;94.51;100909.28;4991239;28;20044;-78
2023/07/30 06:37:44;;;;;;;17.13;6.65;;;;;;;17.11;93.79;100907.03;5004471;28;20041;-78
2023/07/30 06:40:13;;;;;;;18.35;6.50;;;;;;;17.12;92.19;100908.75;5003321;28;20041;-77
2023/07/30 06:42:40;;;;;;;16.95;6.53;;;;;;;17.11;93.43;100910.53;4987144;28;20049;-75
2023/07/30 06:45:08;;;;;;;15.52;6.03;;;;;;;17.17;93.24;100910.22;5004032;28;20129;-71
2023/07/30 06:47:35;;;;;;;13.50;5.72;;;;;;;17.28;93.45;100908.75;4987471;28;20046;-72
2023/07/30 06:50:08;;;;;;;13.52;5.82;;;;;;;17.42;93.11;100915.94;5009292;28;20054;-72
2023/07/30 06:52:38;;;;;;;19.95;6.43;;;;;;;17.50;91.92;100917.19;5007259;28;20050;-73
2023/07/30 06:55:07;;;;;;;20.77;6.80;;;;;;;17.55;91.26;100914.25;5002447;28;20073;-72
2023/07/30 06:57:37;;;;;;;16.10;5.55;;;;;;;17.56;91.25;100917.78;4969860;28;20041;-72
2023/07/30 07:00:04;;;;;;;17.33;5.57;;;;;;;17.58;91.08;100914.06;5003817;28;20463;-72
2023/07/30 07:02:32;;;;;;;15.63;5.40;;;;;;;17.66;90.77;100916.31;5003540;28;20049;-72
2023/07/30 07:05:00;;;;;;;16.48;6.10;;;;;;;17.75;90.22;100920.25;5004196;28;20059;-72
2023/07/30 07:07:27;;;;;;;19.48;6.10;;;;;;;17.75;87.20;100914.91;4995002;28;20451;-72
2023/07/30 07:09:54;;;;;;;19.08;5.93;;;;;;;17.82;88.73;100925.09;4989297;28;20039;-72
2023/07/30 07:12:21;;;;;;;17.85;6.05;;;;;;;18.05;87.75;100922.06;4993715;28;20069;-72
2023/07/30 07:14:48;;;;;;;17.08;6.35;;;;;;;18.23;87.92;100928.94;4990361;28;20097;-72
2023/07/30 07:17:16;;;;;;;18.58;6.05;;;;;;;18.38;87.27;100916.44;5005828;28;20125;-72
2023/07/30 07:19:44;;;;;;;21.48;6.00;;;;;;;18.42;86.52;100923.28;5015500;28;20219;-72
2023/07/30 07:22:11;;;;;;;19.42;6.50;;;;;;;18.44;85.18;100923.22;5002623;28;20120;-73
2023/07/30 07:24:38;;;;;;;19.05;5.68;;;;;;;18.43;84.90;100918.84;5008000;28;20092;-73
2023/07/30 07:27:05;;;;;;;20.02;5.88;;;;;;;18.47;84.86;100917.66;4988606;28;20053;-72
2023/07/30 07:29:34;;;;;;;19.15;5.78;;;;;;;18.55;84.44;100919.88;4990613;28;20046;-73
2023/07/30 07:32:01;;;;;;;16.95;5.70;;;;;;;18.59;82.99;100922.25;5005955;28;20050;-72
2023/07/30 07:34:28;;;;;;;23.17;5.85;;;;;;;18.58;85.05;100917.00;5006765;28;20453;-72
2023/07/30 07:36:55;;;;;;;22.23;5.78;;;;;;;18.66;84.38;100927.22;4986972;28;20046;-72
2023/07/30 07:39:32;;;;;;;21.13;5.70;;;;;;;18.78;82.77;100921.06;5014498;28;20041;-70
2023/07/30 07:41:59;;;;;;;13.57;4.80;;;;;;;18.91;84.07;100926.50;5006819;28;20045;-74
2023/07/30 07:44:26;;;;;;;21.38;5.32;;;;;;;19.15;82.22;100921.41;5012069;28;20030;-74
2023/07/30 07:46:53;;;;;;;14.70;4.68;;;;;;;19.38;81.60;100924.41;4991310;28;20102;-73
2023/07/30 07:49:20;;;;;;;15.50;4.55;;;;;;;19.58;82.19;100925.72;4993634;28;20045;-73
2023/07/30 07:51:50;;;;;;;17.15;4.38;;;;;;;19.63;79.17;100923.63;4987579;28;20141;-73
2023/07/30 07:54:17;;;;;;;18.15;4.30;;;;;;;19.74;79.69;100928.22;4995618;28;20042;-72
2023/07/30 07:56:44;;;;;;;14.73;4.03;;;;;;;19.81;79.42;100926.84;5008678;28;20072;-73
2023/07/30 07:59:12;;;;;;;16.13;4.00;;;;;;;19.83;76.63;100940.97;5008490;28;20057;-73
2023/07/30 08:01:39;;;;;;;12.98;4.05;;;;;;;19.83;77.62;100937.47;5010541;28;20100;-73
2023/07/30 08:04:06;;;;;;;14.30;3.72;;;;;;;19.78;75.83;100935.09;5011157;28;20510;-73
2023/07/30 08:06:34;;;;;;;12.77;3.53;;;;;;;19.67;78.13;100940.31;4992878;28;20052;-72
2023/07/30 08:09:01;;;;;;;17.00;3.58;;;;;;;19.75;77.33;100935.28;5010168;28;20046;-73
2023/07/30 08:11:29;;;;;;;11.70;3.28;;;;;;;19.85;78.50;100932.84;5007850;28;20060;-72
2023/07/30 08:13:57;;;;;;;12.45;3.25;;;;;;;19.96;77.65;100933.00;4990931;28;20056;-72
2023/07/30 08:16:25;;;;;;;11.48;3.20;;;;;;;20.00;76.21;100930.97;4993978;28;20493;-72
2023/07/30 08:18:52;;;;;;;13.93;2.65;;;;;;;20.01;75.59;100936.22;5010095;28;20064;-73
2023/07/30 08:21:20;;;;;;;15.27;2.75;;;;;;;19.98;75.10;100941.78;4992733;28;20104;-73
2023/07/30 08:23:48;;;;;;;15.65;3.05;;;;;;;20.02;76.49;100945.97;5010870;28;20049;-77
2023/07/30 08:26:15;;;;;;;10.48;2.67;;;;;;;20.04;76.42;100953.03;5011620;28;20038;-77
2023/07/30 08:28:42;;;;;;;12.80;2.72;;;;;;;19.96;76.11;100950.88;5006981;28;20143;-76
2023/07/30 08:31:09;;;;;;;13.82;2.88;;;;;;;19.83;74.51;100951.69;5011567;28;20331;-76
2023/07/30 08:33:36;;;;;;;12.05;2.60;;;;;;;19.76;75.28;100957.53;4991016;28;20038;-76
2023/07/30 08:36:03;;;;;;;12.98;3.03;;;;;;;19.78;75.53;100942.25;5008866;28;20085;-76
2023/07/30 08:38:30;;;;;;;16.08;3.10;;;;;;;19.87;74.78;100947.00;4992907;28;20062;-77
2023/07/30 08:40:57;;;;;;;13.02;2.95;;;;;;;20.02;75.58;100954.00;5009871;28;20556;-77
2023/07/30 08:43:25;;;;;;;17.40;2.78;;;;;;;20.17;74.62;100949.41;4991919;28;20038;-76
2023/07/30 08:45:52;;;;;;;17.48;3.13;;;;;;;20.19;74.41;100951.13;4992905;28;20057;-76
2023/07/30 08:48:19;;;;;;;16.20;2.70;;;;;;;20.18;74.23;100944.91;5004779;28;20037;-77
2023/07/30 08:50:49;;;;;;;12.80;3.00;;;;;;;20.11;72.99;100949.81;4989479;28;20033;-76
2023/07/30 08:53:17;;;;;;;18.10;2.78;;;;;;;19.96;73.67;100958.91;5021106;28;20045;-76
2023/07/30 08:55:45;;;;;;;14.77;2.70;;;;;;;19.85;72.32;100960.50;4991832;28;20609;-76
2023/07/30 08:58:13;;;;;;;12.98;2.72;;;;;;;19.71;73.15;100956.03;5008217;28;20050;-76
2023/07/30 09:00:43;;;;;;;14.73;2.92;;;;;;;19.66;73.54;100957.31;5008754;28;20080;-76
2023/07/30 09:03:16;;;;;;;20.50;3.30;;;;;;;19.84;74.12;100958.75;5004384;28;20105;-76
2023/07/30 09:05:43;;;;;;;11.30;2.80;;;;;;;20.10;73.18;100961.47;4988413;28;20053;-76
2023/07/30 09:08:12;;;;;;;18.67;2.88;;;;;;;20.22;73.63;100966.94;4997839;28;20551;-75
2023/07/30 09:10:39;;;;;;;9.20;2.70;;;;;;;20.23;72.53;100952.59;5012059;28;20042;-77
2023/07/30 09:13:06;;;;;;;13.10;2.55;;;;;;;20.08;71.50;100960.75;5011181;28;20497;-77
2023/07/30 09:15:39;;;;;;;16.10;2.72;;;;;;;19.89;72.35;100961.13;5011668;28;20050;-77
2023/07/30 09:18:08;;;;;;;15.53;3.00;;;;;;;19.69;73.80;100963.31;5010699;28;20451;-78
2023/07/30 09:20:41;;;;;;;14.10;2.72;;;;;;;19.58;74.48;100968.50;4997198;28;20125;-77
2023/07/30 09:23:11;;;;;;;11.40;2.60;;;;;;;19.58;75.02;100965.00;5006217;28;20042;-77
2023/07/30 09:25:38;;;;;;;13.82;2.63;;;;;;;19.66;75.58;100976.03;5010399;28;20046;-77
2023/07/30 09:28:06;;;;;;;15.95;2.90;;;;;;;19.79;73.87;100966.22;4992846;28;20099;-77
2023/07/30 09:30:34;;;;;;;12.27;2.60;;;;;;;19.82;72.66;100979.38;4992863;28;20049;-76
2023/07/30 09:33:01;;;;;;;14.80;3.10;;;;;;;19.91;71.70;100980.63;5010070;28;20476;-77
2023/07/30 09:35:28;;;;;;;16.10;3.20;;;;;;;19.99;72.29;100975.59;5010203;28;20135;-77
2023/07/30 09:38:02;;;;;;;15.57;3.50;;;;;;;20.16;72.62;100973.56;5019484;28;20135;-77
2023/07/30 09:40:36;;;;;;;10.82;2.42;;;;;;;20.32;71.51;100976.94;5006833;28;20517;-77
2023/07/30 09:43:05;;;;;;;;;;;;;;;20.43;71.33;100967.28;5010166;28;20050;-77
2023/07/30 09:45:36;;;;;;;10.15;2.28;;;;;;;20.52;69.60;100976.47;5009423;28;19929;-78
2023/07/30 09:48:05;;;;;;;15.45;2.63;;;;;;;20.50;69.03;100975.75;4996528;28;20073;-77
2023/07/30 09:50:34;;;;;;;12.55;2.58;;;;;;;20.56;68.95;100978.00;5010130;28;20141;-77
2023/07/30 09:53:03;;;;;;;7.40;2.10;;;;;;;20.78;67.05;100982.69;5009815;28;20125;-78
2023/07/30 09:55:30;;;;;;;11.45;2.45;;;;;;;20.90;67.86;100981.00;5010461;28;20065;-78
2023/07/30 09:57:57;;;;;;;7.45;1.90;;;;;;;21.14;67.15;100975.66;5010541;28;20502;-78
2023/07/30 10:00:27;;;;;;;8.98;2.13;;;;;;;21.25;64.43;100973.06;4991111;28;20129;-78
2023/07/30 10:02:58;;;;;;;10.02;2.10;;;;;;;21.44;65.30;100977.06;5009863;28;20198;-76
2023/07/30 10:05:34;;;;;;;8.48;1.88;;;;;;;21.65;65.79;100969.25;4990851;28;20064;-76
2023/07/30 10:08:19;;;;;;;10.60;2.25;;;;;;;21.87;66.66;100978.38;5017455;28;20049;-77
2023/07/30 10:10:48;;;;;;;9.27;1.85;;;;;;;22.10;62.87;100971.22;5028212;28;20050;-77
2023/07/30 10:13:16;;;;;;;10.82;2.42;;;;;;;22.06;63.03;100967.09;5010024;28;20045;-77
2023/07/30 10:15:46;;;;;;;11.07;2.00;;;;;;;21.89;62.50;100973.75;5010310;28;20045;-77
2023/07/30 10:18:13;;;;;;;10.85;2.33;;;;;;;21.63;61.57;100962.31;5008059;28;20065;-77
2023/07/30 10:20:45;;;;;;;9.95;2.20;;;;;;;21.34;63.31;100966.16;5009363;28;20177;-77
2023/07/30 10:23:13;;;;;;;8.68;2.10;;;;;;;21.06;62.64;100968.19;4995390;28;20057;-77
2023/07/30 10:25:47;;;;;;;8.27;1.98;;;;;;;20.74;64.76;100970.50;5009392;28;20033;-76
2023/07/30 10:28:36;;;;;;;10.70;2.20;;;;;;;20.42;65.25;100973.59;5008329;28;20649;-76
2023/07/30 10:31:08;;;;;;;11.32;2.95;;;;;;;20.05;67.29;100985.03;5006021;28;20490;-77
2023/07/30 10:33:53;;;;;;;8.52;2.30;;;;;;;19.69;69.67;100990.06;4985179;28;20418;-77
2023/07/30 10:36:41;;;;;;;11.52;2.47;;;;;;;19.44;71.76;100992.63;5008370;28;20038;-76
2023/07/30 10:39:19;;;;;;;12.05;2.50;;;;;;;19.12;75.16;101033.00;4955305;28;20097;-79
2023/07/30 10:41:50;;;;;;;10.95;2.33;;;;;;;18.44;77.04;101038.81;4986744;28;20057;-84
2023/07/30 10:44:42;;;;;;;5.72;2.20;;;;;;;17.65;81.38;101055.88;5009849;28;20164;-84
2023/07/30 10:47:10;;;;;;;8.07;2.10;;;;;;;16.97;84.53;101059.59;5008455;28;20052;-86
2023/07/30 10:50:05;;;;;;;7.70;1.63;;;;;;;16.49;85.24;101038.97;5004610;28;20123;-87
2023/07/30 10:52:35;;;;;;;4.45;1.73;;;;;;;16.14;86.79;101036.34;5011345;28;20061;-85
2023/07/30 10:55:04;;;;;;;4.10;1.38;;;;;;;16.00;89.10;101039.69;5005165;28;20045;-84
2023/07/30 10:57:33;;;;;;;5.10;1.60;;;;;;;16.03;90.87;101036.00;5006187;28;20049;-82
2023/07/30 11:00:04;;;;;;;5.20;1.33;;;;;;;15.96;91.64;101038.13;5005711;28;20053;-82
2023/07/30 11:02:35;;;;;;;5.30;1.80;;;;;;;15.83;92.62;101035.19;4991127;28;20042;-80
2023/07/30 11:05:14;;;;;;;5.88;2.10;;;;;;;15.69;93.04;101038.50;4997647;28;20042;-80
2023/07/30 11:07:50;;;;;;;6.90;1.73;;;;;;;15.55;92.50;101036.53;5006922;28;20046;-80
2023/07/30 11:10:20;;;;;;;6.28;1.65;;;;;;;15.44;93.86;101028.22;4990225;28;20085;-81
2023/07/30 11:12:49;;;;;;;8.38;2.38;;;;;;;15.46;95.09;101037.81;4988241;28;20042;-79
2023/07/30 11:15:17;;;;;;;5.22;1.80;;;;;;;15.65;96.24;101032.50;4981799;28;20045;-77
2023/07/30 11:17:47;;;;;;;6.38;2.10;;;;;;;15.99;95.81;101044.13;5000973;28;20138;-78
2023/07/30 11:20:27;;;;;;;8.80;2.38;;;;;;;16.34;96.63;101048.59;5007265;28;20104;-79
2023/07/30 11:22:54;;;;;;;6.57;2.42;;;;;;;16.79;95.75;101040.94;4988834;28;21573;-78